Strona główna
METAR-TAF:

METAR-TAF

Lotnisko :

Port lotniczy Foz do Iguaçu

Foz do Iguaçu, Parana, Brazylia

Szerokość geograficzna: 25-31S, Długość geograficzna: 054-35W, wysokość: 180 m

Aktualna obserwacja pogody

Raport powstał 32 minut temu, godzina 05:00 UTC
Wiatr 4 kt od wschód
Temperatura 14°C
Wilgotność 100%
Ciśnienie 1021 hPa
Widzialność: 4900 m
Zachmurzenie całkowite na wysokości 300 ft
zamglenie

METAR: SBFI 200500Z 10004KT 4900 BR OVC003 14/14 Q1021

czas: 02:32 (05:32 UTC)

Prognoza

Raport powstał 7 godziny i 17 minut temu, godzina 22:15 UTC
Prognoza ważna od 20 godzina 00 UTC do 20 godzina 24 UTC
Wiatr 5 kt od południowy zachód
Widzialność 10 km lub więcej
Brak chmur poniżej 1500 m i brak chmur cumulonimbus
Prawdopodobieństwo 40% :
Przejściowo
od 20 godzina 06 UTC do 20 godzina 12 UTC
Widzialność: 0600 m
na wysokości 200 ft
mgła

TAF: SBFI 192215Z 2000/2024 22005KT CAVOK TN11/2009Z TX24/2018Z PROB40 TEMPO 2006/2012 0600 FG VV002 RMK PEB

Obserwacja i prognoza pogody dla ponad 4000 lotnisk (raport METAR i TAF).

Dostępne stacje oznaczono żółtymi i czerwonymi punktami na mapie.

Najedź kursorem aby zobaczyć nazwę stacji.

Kliknij aby zobaczyć obserwacje i prognozy pogody.

Aby zmienić mapę: kliknij na zielony przycisk z czarnym krzyżykiem, aby powiększyć; na zielony przycisk z myślnikiem, aby pomniejszyć; na zielone strzałki, aby przejść do map sąsiednich.


METAR-TAF: